Time;durP1;ratioP1;P1;durP2;ratioP2;P2;SDS_P1;SDS_P2;PMS_P1;PMS_P2;Temp;Humidity;BMP_temperature;BMP_pressure;BME280_temperature;BME280_humidity;BME280_pressure;Samples;Min_cycle;Max_cycle;Signal;HPM_P1;HPM_P2
2022/11/06 00:00:07;;;;;;;;;;;8.90;99.90;;;;;;5078426;28;19955;-70
2022/11/06 00:02:32;;;;;;;;;;;8.90;99.90;;;;;;5078353;28;19908;-70
2022/11/06 00:06:46;;;;;;;;;;;8.90;99.90;;;;;;5096473;28;20026;-70
2022/11/06 00:07:45;;;;;;;;;;;8.80;99.90;;;;;;5096218;28;20296;-70
2022/11/06 00:10:11;;;;;;;;;;;8.80;99.90;;;;;;5077925;28;19986;-70
2022/11/06 00:12:37;;;;;;;;;;;8.80;99.90;;;;;;5078233;28;19915;-70
2022/11/06 00:15:02;;;;;;;;;;;8.70;99.90;;;;;;5096283;28;19908;-70
2022/11/06 00:17:28;;;;;;;;;;;8.70;99.90;;;;;;5096142;28;19912;-70
2022/11/06 00:19:53;;;;;;;;;;;8.70;99.90;;;;;;5096191;28;20002;-70
2022/11/06 00:22:18;;;;;;;;;;;8.70;99.90;;;;;;5096157;28;19920;-70
2022/11/06 00:24:44;;;;;;;;;;;8.70;99.90;;;;;;5096084;28;19908;-70
2022/11/06 00:27:09;;;;;;;;;;;8.80;99.90;;;;;;5096036;28;19909;-70
2022/11/06 00:29:35;;;;;;;;;;;8.80;99.90;;;;;;5095991;28;20373;-70
2022/11/06 00:32:00;;;;;;;;;;;8.90;99.90;;;;;;5095913;28;20369;-70
2022/11/06 00:34:26;;;;;;;;;;;8.90;99.90;;;;;;5095871;28;20366;-70
2022/11/06 00:36:51;;;;;;;;;;;8.90;99.90;;;;;;5095646;28;20373;-70
2022/11/06 00:39:16;;;;;;;;;;;9.00;99.90;;;;;;5095720;28;19916;-70
2022/11/06 00:41:42;;;;;;;;;;;9.00;99.90;;;;;;5095756;28;19914;-70
2022/11/06 00:44:08;;;;;;;;;;;9.00;99.90;;;;;;5095949;28;19958;-70
2022/11/06 00:46:33;;;;;;;;;;;9.00;99.90;;;;;;5077651;28;19915;-70
2022/11/06 00:48:59;;;;;;;;;;;9.00;99.90;;;;;;5095462;28;19920;-70
2022/11/06 00:51:27;;;;;;;;;;;9.00;99.90;;;;;;5095661;28;19915;-70
2022/11/06 00:53:53;;;;;;;;;;;9.00;99.90;;;;;;5077421;28;19912;-70
2022/11/06 00:56:19;;;;;;;;;;;9.00;99.90;;;;;;5060630;28;20377;-70
2022/11/06 00:58:45;;;;;;;;;;;9.00;99.90;;;;;;5095336;28;19919;-70
2022/11/06 01:01:13;;;;;;;;;;;9.10;99.90;;;;;;5095328;28;19908;-70
2022/11/06 01:03:39;;;;;;;;;;;9.10;99.90;;;;;;5095361;28;19908;-70
2022/11/06 01:06:08;;;;;;;;;;;9.10;99.90;;;;;;5095557;28;19908;-70
2022/11/06 01:08:34;;;;;;;;;;;9.10;99.90;;;;;;5095204;28;20076;-70
2022/11/06 01:11:20;;;;;;;;;;;9.10;99.90;;;;;;5095207;28;20002;-70
2022/11/06 01:13:47;;;;;;;;;;;9.10;99.90;;;;;;5095025;28;20054;-70
2022/11/06 01:16:13;;;;;;;;;;;9.10;99.90;;;;;;5095093;28;19912;-70
2022/11/06 01:18:40;;;;;;;;;;;9.10;99.90;;;;;;5094920;28;20305;-70
2022/11/06 01:21:06;;;;;;;;;;;9.10;99.90;;;;;;5094574;28;19931;-70
2022/11/06 01:23:32;;;;;;;;;;;9.10;99.90;;;;;;5094635;28;19994;-70
2022/11/06 01:25:58;;;;;;;;;;;9.10;99.90;;;;;;5094909;28;19950;-70
2022/11/06 01:28:24;;;;;;;;;;;9.20;99.90;;;;;;5076851;28;19953;-70
2022/11/06 01:30:50;;;;;;;;;;;9.20;99.90;;;;;;5076770;28;19908;-70
2022/11/06 01:33:16;;;;;;;;;;;9.20;99.90;;;;;;5094754;28;19931;-70
2022/11/06 01:35:43;;;;;;;;;;;9.20;99.90;;;;;;5094710;28;20342;-70
2022/11/06 01:38:08;;;;;;;;;;;9.20;99.90;;;;;;5094488;28;19920;-70
2022/11/06 01:40:49;;;;;;;;;;;9.20;99.90;;;;;;5076512;28;20477;-70
2022/11/06 01:43:18;;;;;;;;;;;9.20;99.90;;;;;;5076505;28;19908;-70
2022/11/06 01:45:44;;;;;;;;;;;9.20;99.90;;;;;;5094522;28;19908;-70
2022/11/06 01:48:11;;;;;;;;;;;9.20;99.90;;;;;;5094523;28;20011;-70
2022/11/06 01:50:37;;;;;;;;;;;9.20;99.90;;;;;;5094493;28;20055;-70
2022/11/06 01:53:03;;;;;;;;;;;9.20;99.90;;;;;;5094400;28;19917;-70
2022/11/06 01:55:31;;;;;;;;;;;9.20;99.90;;;;;;5094385;28;19908;-70
2022/11/06 01:57:59;;;;;;;;;;;9.20;99.90;;;;;;5094280;28;20388;-70
2022/11/06 02:00:25;;;;;;;;;;;9.30;99.90;;;;;;5094377;28;19962;-70
2022/11/06 02:02:51;;;;;;;;;;;9.30;99.90;;;;;;5094262;28;20396;-70
2022/11/06 02:05:16;;;;;;;;;;;9.20;99.90;;;;;;5094264;28;19955;-70
2022/11/06 02:07:42;;;;;;;;;;;9.20;99.90;;;;;;5094238;28;19908;-70
2022/11/06 02:10:08;;;;;;;;;;;9.20;99.90;;;;;;5076168;28;19908;-70
2022/11/06 02:12:39;;;;;;;;;;;9.20;99.90;;;;;;5094171;28;19916;-70
2022/11/06 02:15:10;;;;;;;;;;;9.20;99.90;;;;;;5059095;28;19908;-70
2022/11/06 02:17:56;;;;;;;;;;;9.20;99.90;;;;;;5093933;28;19935;-70
2022/11/06 02:20:27;;;;;;;;;;;9.10;99.90;;;;;;5093987;28;19908;-70
2022/11/06 02:23:13;;;;;;;;;;;9.10;99.90;;;;;;5094028;28;20277;-70
2022/11/06 02:25:58;;;;;;;;;;;9.00;99.90;;;;;;5075809;28;19908;-70
2022/11/06 02:28:27;;;;;;;;;;;9.00;99.90;;;;;;5093749;28;19912;-70
2022/11/06 02:30:55;;;;;;;;;;;8.80;99.90;;;;;;5093845;28;19909;-70
2022/11/06 02:33:25;;;;;;;;;;;8.80;99.90;;;;;;5075626;28;19915;-70
2022/11/06 02:35:56;;;;;;;;;;;8.80;99.90;;;;;;5093773;28;19908;-70
2022/11/06 02:38:24;;;;;;;;;;;8.80;99.90;;;;;;5072100;28;19970;-70
2022/11/06 02:40:54;;;;;;;;;;;8.70;99.90;;;;;;5073545;28;19956;-70
2022/11/06 02:43:21;;;;;;;;;;;8.70;99.90;;;;;;5073513;28;19912;-70
2022/11/06 02:45:52;;;;;;;;;;;8.70;99.90;;;;;;5073493;28;19978;-70
2022/11/06 02:48:20;;;;;;;;;;;8.70;99.90;;;;;;5073475;28;19913;-70
2022/11/06 02:50:47;;;;;;;;;;;8.70;99.90;;;;;;5073454;28;19920;-70
2022/11/06 02:53:14;;;;;;;;;;;8.60;99.90;;;;;;5073416;28;19909;-70
2022/11/06 02:55:42;;;;;;;;;;;8.60;99.90;;;;;;5073441;28;19919;-70
2022/11/06 02:58:11;;;;;;;;;;;8.50;99.90;;;;;;5073362;28;20374;-70
2022/11/06 03:00:39;;;;;;;;;;;8.50;99.90;;;;;;5073396;28;19913;-70
2022/11/06 03:03:06;;;;;;;;;;;8.60;99.90;;;;;;5073364;28;20358;-70
2022/11/06 03:05:33;;;;;;;;;;;8.60;99.90;;;;;;5073407;28;20284;-70
2022/11/06 03:08:06;;;;;;;;;;;8.50;99.90;;;;;;5073343;28;19919;-70
2022/11/06 03:10:37;;;;;;;;;;;8.50;99.90;;;;;;5073249;28;19908;-70
2022/11/06 03:13:10;;;;;;;;;;;8.60;99.90;;;;;;5073231;28;19908;-69
2022/11/06 03:15:51;;;;;;;;;;;8.60;99.90;;;;;;5073227;28;19955;-70
2022/11/06 03:18:26;;;;;;;;;;;8.50;99.90;;;;;;5073094;28;19955;-70
2022/11/06 03:21:11;;;;;;;;;;;8.40;99.90;;;;;;5073174;28;19958;-69
2022/11/06 03:23:44;;;;;;;;;;;8.40;99.90;;;;;;5071878;28;19908;-70
2022/11/06 03:26:13;;;;;;;;;;;8.50;99.90;;;;;;5073072;28;19912;-70
2022/11/06 03:28:45;;;;;;;;;;;8.60;99.90;;;;;;5071829;28;20007;-70
2022/11/06 03:31:14;;;;;;;;;;;8.50;99.90;;;;;;5073131;28;19931;-70
2022/11/06 03:33:45;;;;;;;;;;;8.50;99.90;;;;;;5071837;28;19954;-70
2022/11/06 03:36:14;;;;;;;;;;;8.60;99.90;;;;;;5105769;28;20041;-70
2022/11/06 03:38:42;;;;;;;;;;;8.50;99.90;;;;;;5091160;28;19928;-70
2022/11/06 03:41:11;;;;;;;;;;;8.50;99.90;;;;;;5093205;28;19915;-70
2022/11/06 03:43:37;;;;;;;;;;;8.40;99.90;;;;;;5093169;28;19909;-70
2022/11/06 03:46:04;;;;;;;;;;;8.30;99.90;;;;;;5095675;28;19908;-70
2022/11/06 03:48:37;;;;;;;;;;;8.30;99.90;;;;;;5096804;28;19958;-70
2022/11/06 03:51:05;;;;;;;;;;;8.30;99.90;;;;;;5096764;28;20388;-70
2022/11/06 03:53:35;;;;;;;;;;;8.30;99.90;;;;;;5096759;28;19908;-69
2022/11/06 03:56:04;;;;;;;;;;;8.30;99.90;;;;;;5078523;28;19961;-70
2022/11/06 03:58:32;;;;;;;;;;;8.30;99.90;;;;;;5096517;28;19916;-70
2022/11/06 04:00:59;;;;;;;;;;;8.30;99.90;;;;;;5078584;28;19958;-70
2022/11/06 04:03:29;;;;;;;;;;;8.20;99.90;;;;;;5096545;28;19909;-70
2022/11/06 04:05:59;;;;;;;;;;;8.10;99.90;;;;;;5096776;28;20334;-70
2022/11/06 04:14:00;;;;;;;;;;;8.00;99.90;;;;;;5096159;28;19908;-70
2022/11/06 04:16:30;;;;;;;;;;;8.10;99.90;;;;;;5096273;28;19908;-70
2022/11/06 04:18:56;;;;;;;;;;;8.10;99.90;;;;;;5078417;28;19920;-70
2022/11/06 04:21:41;;;;;;;;;;;8.00;99.90;;;;;;5096168;28;19908;-71
2022/11/06 04:27:25;;;;;;;;;;;8.00;99.90;;;;;;5095859;28;20053;-69
2022/11/06 04:30:00;;;;;;;;;;;8.00;99.90;;;;;;5096006;28;19955;-70
2022/11/06 04:35:26;;;;;;;;;;;7.90;99.90;;;;;;5091415;27;20289;-68
2022/11/06 04:37:56;;;;;;;;;;;7.90;99.90;;;;;;5089905;28;19917;-68
2022/11/06 04:40:25;;;;;;;;;;;7.80;99.90;;;;;;5091145;28;19915;-68
2022/11/06 04:42:57;;;;;;;;;;;7.80;99.90;;;;;;5091085;28;20420;-68
2022/11/06 04:45:26;;;;;;;;;;;7.70;99.90;;;;;;5091013;28;19908;-68
2022/11/06 04:47:53;;;;;;;;;;;7.70;99.90;;;;;;5090994;28;20285;-68
2022/11/06 04:50:21;;;;;;;;;;;7.60;99.90;;;;;;5123601;28;19909;-68
2022/11/06 04:52:46;;;;;;;;;;;7.60;99.90;;;;;;5089672;28;19915;-68
2022/11/06 04:55:12;;;;;;;;;;;7.50;99.90;;;;;;5090817;28;19912;-68
2022/11/06 04:57:37;;;;;;;;;;;7.50;99.90;;;;;;5090823;28;19909;-68
2022/11/06 05:00:03;;;;;;;;;;;7.50;99.90;;;;;;5090759;28;19912;-71
2022/11/06 05:02:29;;;;;;;;;;;7.50;99.90;;;;;;5090710;28;19908;-68
2022/11/06 05:04:54;;;;;;;;;;;7.50;99.90;;;;;;5090633;28;19909;-68
2022/11/06 05:07:19;;;;;;;;;;;7.60;99.90;;;;;;5090635;28;19987;-68
2022/11/06 05:09:45;;;;;;;;;;;7.60;99.90;;;;;;5089295;28;19948;-68
2022/11/06 05:12:10;;;;;;;;;;;7.70;99.90;;;;;;5090564;28;19919;-68
2022/11/06 05:14:36;;;;;;;;;;;7.70;99.90;;;;;;5090460;28;19922;-68
2022/11/06 05:17:01;;;;;;;;;;;7.70;99.90;;;;;;5123401;28;20286;-68
2022/11/06 05:19:27;;;;;;;;;;;7.70;99.90;;;;;;5123409;28;19909;-68
2022/11/06 05:24:38;;;;;;;;;;;7.50;99.90;;;;;;5090168;28;19908;-68
2022/11/06 05:27:03;;;;;;;;;;;7.50;99.90;;;;;;5088997;28;19953;-68
2022/11/06 05:29:29;;;;;;;;;;;7.40;99.90;;;;;;5090252;28;19915;-68
2022/11/06 05:31:54;;;;;;;;;;;7.40;99.90;;;;;;5090176;28;19909;-68
2022/11/06 05:34:20;;;;;;;;;;;7.50;99.90;;;;;;5102134;28;19969;-68
2022/11/06 05:36:46;;;;;;;;;;;7.50;99.90;;;;;;5110431;28;19908;-68
2022/11/06 05:39:11;;;;;;;;;;;7.50;99.90;;;;;;5092125;28;19912;-68
2022/11/06 05:41:36;;;;;;;;;;;7.40;99.90;;;;;;5110336;28;19908;-68
2022/11/06 05:44:02;;;;;;;;;;;7.40;99.90;;;;;;5110290;28;20010;-68
2022/11/06 05:46:35;;;;;;;;;;;7.40;99.90;;;;;;5098212;28;20006;-68
2022/11/06 05:49:00;;;;;;;;;;;7.40;99.90;;;;;;5078419;28;19914;-68
2022/11/06 05:51:26;;;;;;;;;;;7.30;99.90;;;;;;5096579;28;20385;-68
2022/11/06 05:53:51;;;;;;;;;;;7.30;99.90;;;;;;5096412;28;19920;-68
2022/11/06 05:56:16;;;;;;;;;;;7.40;99.90;;;;;;5096429;28;19944;-68
2022/11/06 05:58:42;;;;;;;;;;;7.50;99.90;;;;;;5096420;28;19958;-68
2022/11/06 06:01:08;;;;;;;;;;;7.40;99.90;;;;;;5096426;28;20006;-68
2022/11/06 06:03:33;;;;;;;;;;;7.40;99.90;;;;;;5096315;28;20341;-68
2022/11/06 06:05:59;;;;;;;;;;;7.50;99.90;;;;;;5096307;28;19908;-68
2022/11/06 06:08:24;;;;;;;;;;;7.60;99.90;;;;;;5078195;28;20390;-69
2022/11/06 06:10:50;;;;;;;;;;;7.60;99.90;;;;;;5096194;28;19908;-68
2022/11/06 06:13:15;;;;;;;;;;;7.70;99.90;;;;;;5096049;28;19920;-68
2022/11/06 06:15:42;;;;;;;;;;;7.60;99.90;;;;;;5096086;28;19912;-68
2022/11/06 06:18:08;;;;;;;;;;;7.60;99.90;;;;;;5096092;28;19945;-68
2022/11/06 06:20:34;;;;;;;;;;;7.50;99.90;;;;;;5095972;28;19908;-68
2022/11/06 06:22:59;;;;;;;;;;;7.50;99.90;;;;;;5061251;28;20038;-68
2022/11/06 06:25:25;;;;;;;;;;;7.60;99.90;;;;;;5095920;28;19908;-69
2022/11/06 06:27:51;;;;;;;;;;;7.60;99.90;;;;;;5095871;28;20409;-69
2022/11/06 06:30:17;;;;;;;;;;;7.50;99.90;;;;;;5095800;28;19909;-68
2022/11/06 06:32:42;;;;;;;;;;;7.60;99.90;;;;;;5095973;28;19958;-68
2022/11/06 06:35:08;;;;;;;;;;;7.60;99.90;;;;;;5095291;28;20412;-68
2022/11/06 06:37:34;;;;;;;;;;;7.70;99.90;;;;;;5077572;28;20274;-68
2022/11/06 06:39:59;;;;;;;;;;;7.80;99.90;;;;;;5077521;28;19909;-68
2022/11/06 06:42:26;;;;;;;;;;;7.90;99.90;;;;;;5095578;28;20464;-68
2022/11/06 06:44:52;;;;;;;;;;;7.80;99.90;;;;;;5077360;28;20014;-68
2022/11/06 06:47:17;;;;;;;;;;;7.90;99.90;;;;;;5095464;28;19962;-68
2022/11/06 06:49:43;;;;;;;;;;;7.90;99.90;;;;;;5095405;28;19916;-68
2022/11/06 06:52:08;;;;;;;;;;;7.90;99.90;;;;;;5060658;28;20305;-68
2022/11/06 06:54:34;;;;;;;;;;;8.00;99.90;;;;;;5095248;28;19919;-68
2022/11/06 06:56:59;;;;;;;;;;;8.00;99.90;;;;;;5094307;28;19908;-69
2022/11/06 06:59:26;;;;;;;;;;;8.10;99.90;;;;;;5095233;28;19915;-69
2022/11/06 07:01:52;;;;;;;;;;;8.20;99.90;;;;;;5095161;28;20016;-69
2022/11/06 07:04:17;;;;;;;;;;;8.30;99.90;;;;;;5095137;28;20006;-70
2022/11/06 07:06:42;;;;;;;;;;;8.40;99.90;;;;;;5095088;28;19908;-69
2022/11/06 07:09:08;;;;;;;;;;;8.60;99.90;;;;;;5095391;28;19919;-69
2022/11/06 07:11:33;;;;;;;;;;;8.90;99.90;;;;;;5095030;28;19943;-69
2022/11/06 07:13:59;;;;;;;;;;;9.30;99.90;;;;;;5094847;28;19912;-69
2022/11/06 07:16:26;;;;;;;;;;;9.80;99.90;;;;;;5094937;28;19955;-69
2022/11/06 07:18:52;;;;;;;;;;;10.50;99.90;;;;;;5076756;28;19912;-69
2022/11/06 07:21:17;;;;;;;;;;;11.20;99.90;;;;;;5076828;28;20339;-69
2022/11/06 07:23:43;;;;;;;;;;;11.60;99.90;;;;;;5094813;28;20322;-70
2022/11/06 07:26:08;;;;;;;;;;;11.80;99.90;;;;;;5076678;28;19916;-69
2022/11/06 07:28:34;;;;;;;;;;;12.10;99.90;;;;;;5094910;28;19999;-70
2022/11/06 07:31:00;;;;;;;;;;;12.10;99.90;;;;;;5094960;28;19915;-69
2022/11/06 07:33:26;;;;;;;;;;;12.30;99.90;;;;;;5076244;28;19927;-69
2022/11/06 07:35:51;;;;;;;;;;;12.80;99.90;;;;;;5094606;28;19912;-69
2022/11/06 07:38:16;;;;;;;;;;;13.00;99.90;;;;;;5094517;28;19908;-69
2022/11/06 07:40:42;;;;;;;;;;;12.80;99.90;;;;;;5094458;28;19954;-70
2022/11/06 07:43:09;;;;;;;;;;;13.10;99.90;;;;;;5076399;28;19912;-69
2022/11/06 07:45:34;;;;;;;;;;;13.40;99.90;;;;;;5076569;28;19908;-69
2022/11/06 07:48:00;;;;;;;;;;;14.20;99.90;;;;;;5094288;28;19912;-69
2022/11/06 07:50:26;;;;;;;;;;;14.20;99.90;;;;;;5076160;28;19909;-69
2022/11/06 07:52:51;;;;;;;;;;;14.20;99.90;;;;;;5094240;28;19964;-69
2022/11/06 07:55:17;;;;;;;;;;;14.20;99.90;;;;;;5094189;28;19965;-69
2022/11/06 07:57:42;;;;;;;;;;;14.40;99.90;;;;;;5094467;28;19915;-70
2022/11/06 08:00:08;;;;;;;;;;;14.20;99.90;;;;;;5094440;28;19912;-70
2022/11/06 08:02:33;;;;;;;;;;;14.20;99.90;;;;;;5059446;28;20475;-69
2022/11/06 08:04:59;;;;;;;;;;;14.40;99.90;;;;;;5094106;28;19957;-70
2022/11/06 08:07:24;;;;;;;;;;;14.40;99.90;;;;;;5094073;28;19908;-70
2022/11/06 08:09:50;;;;;;;;;;;14.60;99.90;;;;;;5093759;28;19915;-69
2022/11/06 08:12:15;;;;;;;;;;;15.00;99.90;;;;;;5094005;28;19916;-70
2022/11/06 08:14:41;;;;;;;;;;;15.10;99.90;;;;;;5093924;28;19966;-70
2022/11/06 08:17:06;;;;;;;;;;;14.90;99.90;;;;;;5093938;28;19908;-70
2022/11/06 08:19:32;;;;;;;;;;;15.00;99.90;;;;;;5093908;28;19955;-70
2022/11/06 08:21:57;;;;;;;;;;;14.90;99.90;;;;;;5093883;28;20010;-70
2022/11/06 08:24:23;;;;;;;;;;;15.10;99.90;;;;;;5093850;28;19957;-70
2022/11/06 08:26:48;;;;;;;;;;;15.00;99.90;;;;;;5093775;28;19978;-70
2022/11/06 08:29:14;;;;;;;;;;;14.60;99.90;;;;;;5093779;28;19963;-69
2022/11/06 08:31:39;;;;;;;;;;;14.60;99.90;;;;;;5076049;28;19908;-69
2022/11/06 08:34:05;;;;;;;;;;;14.70;99.90;;;;;;5093453;28;20011;-69
2022/11/06 08:36:34;;;;;;;;;;;14.90;99.90;;;;;;5093733;28;19915;-69
2022/11/06 08:39:00;;;;;;;;;;;15.00;99.90;;;;;;5075583;28;19969;-69
2022/11/06 08:41:25;;;;;;;;;;;15.40;99.90;;;;;;5093668;28;19951;-69
2022/11/06 08:43:51;;;;;;;;;;;15.70;99.90;;;;;;5075575;28;19912;-69
2022/11/06 08:46:16;;;;;;;;;;;14.70;99.90;;;;;;5075515;28;19916;-69
2022/11/06 08:48:42;;;;;;;;;;;15.40;99.90;;;;;;5093587;28;19915;-69
2022/11/06 08:51:07;;;;;;;;;;;15.40;99.90;;;;;;5093565;28;19938;-69
2022/11/06 08:53:32;;;;;;;;;;;15.40;99.90;;;;;;5093536;28;20354;-69
2022/11/06 08:55:58;;;;;;;;;;;15.50;99.90;;;;;;5093535;28;20277;-69
2022/11/06 08:58:23;;;;;;;;;;;15.80;99.90;;;;;;5075413;28;19909;-69
2022/11/06 09:00:49;;;;;;;;;;;16.40;99.90;;;;;;5093536;28;19955;-70
2022/11/06 09:03:16;;;;;;;;;;;16.40;99.90;;;;;;5093503;28;19915;-69
2022/11/06 09:05:42;;;;;;;;;;;16.50;99.90;;;;;;5093432;28;19912;-69
2022/11/06 09:08:08;;;;;;;;;;;16.70;99.90;;;;;;5093451;28;19951;-69
2022/11/06 09:10:35;;;;;;;;;;;16.60;99.90;;;;;;5093417;28;19908;-69
2022/11/06 09:13:00;;;;;;;;;;;16.10;99.90;;;;;;5093356;28;20010;-69
2022/11/06 09:15:26;;;;;;;;;;;16.40;99.90;;;;;;5093341;28;19998;-69
2022/11/06 09:17:52;;;;;;;;;;;15.90;99.90;;;;;;5093313;28;20362;-69
2022/11/06 09:20:18;;;;;;;;;;;15.70;99.90;;;;;;5094166;28;19908;-69
2022/11/06 09:22:44;;;;;;;;;;;15.60;99.90;;;;;;5097138;28;19999;-69
2022/11/06 09:25:10;;;;;;;;;;;15.60;99.90;;;;;;5078903;28;19958;-69
2022/11/06 09:27:44;;;;;;;;;;;14.60;99.90;;;;;;5097127;28;19908;-69
2022/11/06 09:30:10;;;;;;;;;;;15.30;99.90;;;;;;5097040;28;19908;-69
2022/11/06 09:32:36;;;;;;;;;;;15.40;99.90;;;;;;5096957;28;19908;-69
2022/11/06 09:35:02;;;;;;;;;;;16.40;99.90;;;;;;5078546;28;19931;-69
2022/11/06 09:37:27;;;;;;;;;;;16.10;99.90;;;;;;5096832;28;19970;-69
2022/11/06 09:39:53;;;;;;;;;;;16.70;99.90;;;;;;5096810;28;19914;-69
2022/11/06 09:42:32;;;;;;;;;;;17.00;99.90;;;;;;5096705;28;19959;-70
2022/11/06 09:45:07;;;;;;;;;;;17.10;99.90;;;;;;5078614;28;19908;-70
2022/11/06 09:47:35;;;;;;;;;;;17.00;99.90;;;;;;5096724;28;19915;-70
2022/11/06 09:50:02;;;;;;;;;;;16.50;99.90;;;;;;5096628;28;19915;-70
2022/11/06 09:52:34;;;;;;;;;;;16.60;99.90;;;;;;5096543;28;19915;-71
2022/11/06 09:55:03;;;;;;;;;;;16.90;99.90;;;;;;5096452;28;19916;-70
2022/11/06 09:57:34;;;;;;;;;;;16.60;99.90;;;;;;5096498;28;19908;-69
2022/11/06 10:00:00;;;;;;;;;;;15.80;99.90;;;;;;5096438;28;19908;-69
2022/11/06 10:02:28;;;;;;;;;;;15.00;99.90;;;;;;5096362;28;19908;-69
2022/11/06 10:05:13;;;;;;;;;;;14.70;99.90;;;;;;5096310;28;19915;-70
2022/11/06 10:07:41;;;;;;;;;;;15.60;99.90;;;;;;5096167;28;19952;-69
2022/11/06 10:10:10;;;;;;;;;;;15.50;99.90;;;;;;5096234;28;19914;-70
2022/11/06 10:12:52;;;;;;;;;;;15.50;99.90;;;;;;5096179;28;19908;-69
2022/11/06 10:15:23;;;;;;;;;;;14.90;99.90;;;;;;5096072;28;20019;-70
2022/11/06 10:17:54;;;;;;;;;;;14.30;99.90;;;;;;5096133;28;20015;-70
2022/11/06 10:20:23;;;;;;;;;;;14.10;99.90;;;;;;5077929;28;19915;-70
2022/11/06 10:23:00;;;;;;;;;;;14.10;99.90;;;;;;5078060;28;19908;-70
2022/11/06 10:25:34;;;;;;;;;;;14.10;99.90;;;;;;5077792;28;19908;-70
2022/11/06 10:28:01;;;;;;;;;;;14.00;99.90;;;;;;5095881;28;19909;-69
2022/11/06 10:30:36;;;;;;;;;;;14.00;99.90;;;;;;5096118;28;19908;-70
2022/11/06 10:33:09;;;;;;;;;;;13.80;99.90;;;;;;5095536;28;19908;-69
2022/11/06 10:35:40;;;;;;;;;;;13.80;99.90;;;;;;5095756;28;19912;-70
2022/11/06 10:38:13;;;;;;;;;;;13.80;99.90;;;;;;5095675;28;19915;-70
2022/11/06 10:40:41;;;;;;;;;;;14.10;99.90;;;;;;5095659;28;19908;-70
2022/11/06 10:43:27;;;;;;;;;;;14.20;99.90;;;;;;5095556;28;20381;-70
2022/11/06 10:45:57;;;;;;;;;;;14.20;99.90;;;;;;5095421;28;20316;-69
2022/11/06 10:48:28;;;;;;;;;;;14.00;99.90;;;;;;5095404;28;19930;-70
2022/11/06 10:51:13;;;;;;;;;;;14.10;99.90;;;;;;5077270;28;19908;-70
2022/11/06 10:53:47;;;;;;;;;;;14.20;99.90;;;;;;5095130;28;20014;-70
2022/11/06 10:56:32;;;;;;;;;;;14.50;99.90;;;;;;5095341;28;19997;-70
2022/11/06 10:58:58;;;;;;;;;;;14.30;99.90;;;;;;5095133;28;19914;-70
2022/11/06 11:01:23;;;;;;;;;;;14.20;99.90;;;;;;5095293;28;19908;-70
2022/11/06 11:03:50;;;;;;;;;;;14.20;99.90;;;;;;5095243;28;19909;-70
2022/11/06 11:06:16;;;;;;;;;;;14.20;99.90;;;;;;5095210;28;19908;-70
2022/11/06 11:08:43;;;;;;;;;;;14.30;99.90;;;;;;5095096;28;19919;-70
2022/11/06 11:11:24;;;;;;;;;;;14.00;99.90;;;;;;5095076;28;20374;-70
2022/11/06 11:14:10;;;;;;;;;;;13.90;99.90;;;;;;5094990;28;19912;-70
2022/11/06 11:16:38;;;;;;;;;;;13.80;99.90;;;;;;5094982;28;20344;-70
2022/11/06 11:19:24;;;;;;;;;;;14.00;99.90;;;;;;5077106;28;19915;-70
2022/11/06 11:21:52;;;;;;;;;;;14.30;99.90;;;;;;5094809;28;19908;-70
2022/11/06 11:24:17;;;;;;;;;;;14.30;99.90;;;;;;5094786;28;19912;-70
2022/11/06 11:26:45;;;;;;;;;;;14.10;99.90;;;;;;5094807;28;19953;-70
2022/11/06 11:29:13;;;;;;;;;;;13.90;99.90;;;;;;5094742;28;19916;-70
2022/11/06 11:31:39;;;;;;;;;;;13.70;99.90;;;;;;5076703;28;19908;-70
2022/11/06 11:34:13;;;;;;;;;;;13.80;99.90;;;;;;5072824;28;19920;-70
2022/11/06 11:36:47;;;;;;;;;;;13.60;99.90;;;;;;5074239;28;19931;-70
2022/11/06 11:39:14;;;;;;;;;;;13.40;99.90;;;;;;5074196;28;20377;-70
2022/11/06 11:41:40;;;;;;;;;;;13.40;99.90;;;;;;5074169;28;20007;-70
2022/11/06 11:44:12;;;;;;;;;;;13.30;99.90;;;;;;5073653;28;19948;-70
2022/11/06 11:46:44;;;;;;;;;;;13.20;99.90;;;;;;5074065;28;19908;-70
2022/11/06 11:49:23;;;;;;;;;;;13.20;99.90;;;;;;5106757;28;19923;-70
2022/11/06 11:51:49;;;;;;;;;;;13.40;99.90;;;;;;5074088;28;19948;-70
2022/11/06 11:54:19;;;;;;;;;;;13.80;99.90;;;;;;5073942;28;19974;-70
2022/11/06 11:57:04;;;;;;;;;;;14.10;99.90;;;;;;5073990;28;19915;-70
2022/11/06 11:59:35;;;;;;;;;;;14.40;99.90;;;;;;5072596;28;19909;-70
2022/11/06 12:02:03;;;;;;;;;;;14.30;99.90;;;;;;5106623;28;19954;-70
2022/11/06 12:04:33;;;;;;;;;;;14.10;99.90;;;;;;5073849;28;19916;-70
2022/11/06 12:06:59;;;;;;;;;;;13.90;99.90;;;;;;5106613;28;19908;-70
2022/11/06 12:09:26;;;;;;;;;;;13.70;99.90;;;;;;5073849;28;19909;-70
2022/11/06 12:11:52;;;;;;;;;;;13.60;99.90;;;;;;5073753;28;19909;-70
2022/11/06 12:14:24;;;;;;;;;;;13.70;99.90;;;;;;5073732;28;20298;-70
2022/11/06 12:16:52;;;;;;;;;;;13.60;99.90;;;;;;5073781;28;19916;-70
2022/11/06 12:19:19;;;;;;;;;;;13.60;99.90;;;;;;5072422;28;20019;-70
2022/11/06 12:21:47;;;;;;;;;;;13.60;99.90;;;;;;5073698;28;19939;-70
2022/11/06 12:24:33;;;;;;;;;;;13.70;99.90;;;;;;5073577;28;20356;-70
2022/11/06 12:27:02;;;;;;;;;;;13.80;99.90;;;;;;5073681;28;19909;-70
2022/11/06 12:29:47;;;;;;;;;;;13.80;99.90;;;;;;5073633;28;19958;-70
2022/11/06 12:32:20;;;;;;;;;;;13.80;99.90;;;;;;5073696;28;20381;-70
2022/11/06 12:34:49;;;;;;;;;;;14.10;99.90;;;;;;5072072;28;19972;-70
2022/11/06 12:37:35;;;;;;;;;;;14.10;99.90;;;;;;5089072;28;19909;-70
2022/11/06 12:40:13;;;;;;;;;;;14.20;99.90;;;;;;5073395;28;19915;-70
2022/11/06 12:42:40;;;;;;;;;;;14.00;99.90;;;;;;5073760;28;20351;-70
2022/11/06 12:45:10;;;;;;;;;;;13.90;99.90;;;;;;5073469;28;19915;-70
2022/11/06 12:47:46;;;;;;;;;;;13.80;99.90;;;;;;5073411;28;19908;-70
2022/11/06 12:50:17;;;;;;;;;;;13.90;99.90;;;;;;5073702;28;19920;-70
2022/11/06 12:53:02;;;;;;;;;;;13.80;99.90;;;;;;5073657;28;19909;-70
2022/11/06 12:55:32;;;;;;;;;;;13.70;99.90;;;;;;5073248;28;19912;-70
2022/11/06 12:58:18;;;;;;;;;;;13.80;99.90;;;;;;5076196;28;20061;-70
2022/11/06 13:01:03;;;;;;;;;;;14.00;99.90;;;;;;5076091;28;19909;-70
2022/11/06 13:03:49;;;;;;;;;;;14.10;99.90;;;;;;5077375;28;19916;-70
2022/11/06 13:06:34;;;;;;;;;;;14.20;99.90;;;;;;5075941;28;20353;-70
2022/11/06 13:09:06;;;;;;;;;;;14.20;99.90;;;;;;5077179;28;19962;-70
2022/11/06 13:11:52;;;;;;;;;;;14.10;99.90;;;;;;5077191;28;19975;-70
2022/11/06 13:14:37;;;;;;;;;;;13.80;99.90;;;;;;5077074;28;19912;-70
2022/11/06 13:17:24;;;;;;;;;;;13.70;99.90;;;;;;5077135;28;19915;-70
2022/11/06 13:19:56;;;;;;;;;;;13.60;99.90;;;;;;5076838;28;19914;-70
2022/11/06 13:25:28;;;;;;;;;;;13.40;99.90;;;;;;5091404;27;19913;-70
2022/11/06 13:28:13;;;;;;;;;;;13.20;99.90;;;;;;5089911;28;19952;-70
2022/11/06 13:30:39;;;;;;;;;;;13.20;99.90;;;;;;5091175;28;19920;-70
2022/11/06 13:33:14;;;;;;;;;;;13.20;99.90;;;;;;5106891;28;19908;-70
2022/11/06 13:35:42;;;;;;;;;;;13.20;99.90;;;;;;5091116;28;19970;-70
2022/11/06 13:38:08;;;;;;;;;;;13.20;99.90;;;;;;5091022;28;19948;-70
2022/11/06 13:40:36;;;;;;;;;;;13.20;99.90;;;;;;5123988;28;19908;-70
2022/11/06 13:43:09;;;;;;;;;;;13.20;99.90;;;;;;5090962;28;20373;-70
2022/11/06 13:45:40;;;;;;;;;;;13.20;99.90;;;;;;5090982;28;19915;-70
2022/11/06 13:50:52;;;;;;;;;;;13.10;99.90;;;;;;5091281;27;19919;-70
2022/11/06 13:53:37;;;;;;;;;;;13.10;99.90;;;;;;5091241;28;19912;-70
2022/11/06 13:56:23;;;;;;;;;;;13.10;99.90;;;;;;5091284;28;19915;-70
2022/11/06 13:59:08;;;;;;;;;;;13.00;99.90;;;;;;5091088;28;19958;-70
2022/11/06 14:01:47;;;;;;;;;;;12.90;99.90;;;;;;5091174;28;19908;-70
2022/11/06 14:06:53;;;;;;;;;;;13.00;99.90;;;;;;5008028;28;20372;-69
2022/11/06 14:09:21;;;;;;;;;;;13.10;99.90;;;;;;5008078;28;19914;-69
2022/11/06 14:11:52;;;;;;;;;;;13.10;99.90;;;;;;5007958;28;20005;-69
2022/11/06 14:14:21;;;;;;;;;;;13.00;99.90;;;;;;5007850;28;19909;-69
2022/11/06 14:17:06;;;;;;;;;;;13.00;99.90;;;;;;5007873;28;19914;-69
2022/11/06 14:19:31;;;;;;;;;;;13.00;99.90;;;;;;5007831;28;19948;-69
2022/11/06 14:22:15;;;;;;;;;;;13.00;99.90;;;;;;5007737;28;20335;-70
2022/11/06 14:24:41;;;;;;;;;;;12.90;99.90;;;;;;5008023;28;19910;-69
2022/11/06 14:27:10;;;;;;;;;;;12.90;99.90;;;;;;5006437;28;19959;-69
2022/11/06 14:29:38;;;;;;;;;;;12.80;99.90;;;;;;5007700;28;19910;-70
2022/11/06 14:32:09;;;;;;;;;;;12.80;99.90;;;;;;5007722;28;20294;-69
2022/11/06 14:34:36;;;;;;;;;;;12.60;99.90;;;;;;5007604;28;20354;-69
2022/11/06 14:39:55;;;;;;;;;;;12.50;99.90;;;;;;5107374;27;1888046;-70
2022/11/06 14:42:24;;;;;;;;;;;12.40;99.90;;;;;;5173660;27;20290;-70
2022/11/06 14:44:52;;;;;;;;;;;12.30;99.90;;;;;;5173590;27;19915;-70
2022/11/06 14:47:20;;;;;;;;;;;12.30;99.90;;;;;;5154827;27;20338;-70
2022/11/06 14:49:48;;;;;;;;;;;12.30;99.90;;;;;;5155083;27;19954;-70
2022/11/06 14:52:15;;;;;;;;;;;12.30;99.90;;;;;;5173490;27;19907;-70
2022/11/06 14:54:48;;;;;;;;;;;12.30;99.90;;;;;;5154648;27;19914;-70
2022/11/06 14:57:15;;;;;;;;;;;12.30;99.90;;;;;;5173405;27;19951;-70
2022/11/06 14:59:41;;;;;;;;;;;12.30;99.90;;;;;;5173226;27;19915;-70